sensor_id;sensor_type;location;lat;lon;timestamp;P1;durP1;ratioP1;P2;durP2;ratioP2
52015;SDS011;38032;53.326;6.472;2023-05-06T00:01:09;18.83;;;13.82;;
52015;SDS011;38032;53.326;6.472;2023-05-06T00:03:39;16.42;;;12.75;;
52015;SDS011;38032;53.326;6.472;2023-05-06T00:06:05;16.88;;;13.25;;
52015;SDS011;38032;53.326;6.472;2023-05-06T00:08:33;18.25;;;13.48;;
52015;SDS011;38032;53.326;6.472;2023-05-06T00:10:59;16.55;;;12.43;;
52015;SDS011;38032;53.326;6.472;2023-05-06T00:13:25;14.35;;;11.18;;
52015;SDS011;38032;53.326;6.472;2023-05-06T00:15:51;15.48;;;11.93;;
52015;SDS011;38032;53.326;6.472;2023-05-06T00:18:17;16.65;;;11.48;;
52015;SDS011;38032;53.326;6.472;2023-05-06T00:20:43;14.65;;;11.40;;
52015;SDS011;38032;53.326;6.472;2023-05-06T00:23:09;15.55;;;11.40;;
52015;SDS011;38032;53.326;6.472;2023-05-06T00:25:35;14.75;;;12.05;;
52015;SDS011;38032;53.326;6.472;2023-05-06T00:28:00;14.90;;;11.15;;
52015;SDS011;38032;53.326;6.472;2023-05-06T00:30:26;13.10;;;10.27;;
52015;SDS011;38032;53.326;6.472;2023-05-06T00:32:52;17.05;;;12.13;;
52015;SDS011;38032;53.326;6.472;2023-05-06T00:35:18;12.85;;;10.55;;
52015;SDS011;38032;53.326;6.472;2023-05-06T00:37:44;15.57;;;11.98;;
52015;SDS011;38032;53.326;6.472;2023-05-06T00:40:11;18.00;;;12.98;;
52015;SDS011;38032;53.326;6.472;2023-05-06T00:42:38;16.90;;;12.93;;
52015;SDS011;38032;53.326;6.472;2023-05-06T00:45:04;16.73;;;13.38;;
52015;SDS011;38032;53.326;6.472;2023-05-06T00:47:31;16.52;;;12.73;;
52015;SDS011;38032;53.326;6.472;2023-05-06T00:49:57;19.05;;;13.98;;
52015;SDS011;38032;53.326;6.472;2023-05-06T00:52:23;19.17;;;13.55;;
52015;SDS011;38032;53.326;6.472;2023-05-06T00:54:49;18.35;;;13.88;;
52015;SDS011;38032;53.326;6.472;2023-05-06T00:57:15;20.70;;;14.75;;
52015;SDS011;38032;53.326;6.472;2023-05-06T00:59:41;17.55;;;13.43;;
52015;SDS011;38032;53.326;6.472;2023-05-06T01:02:08;18.00;;;14.30;;
52015;SDS011;38032;53.326;6.472;2023-05-06T01:04:33;18.58;;;13.75;;
52015;SDS011;38032;53.326;6.472;2023-05-06T01:07:11;18.48;;;14.40;;
52015;SDS011;38032;53.326;6.472;2023-05-06T01:09:52;20.90;;;15.38;;
52015;SDS011;38032;53.326;6.472;2023-05-06T01:12:28;17.65;;;13.98;;
52015;SDS011;38032;53.326;6.472;2023-05-06T01:15:01;19.23;;;13.77;;
52015;SDS011;38032;53.326;6.472;2023-05-06T01:17:35;18.90;;;14.30;;
52015;SDS011;38032;53.326;6.472;2023-05-06T01:20:04;16.33;;;13.30;;
52015;SDS011;38032;53.326;6.472;2023-05-06T01:22:33;17.40;;;12.90;;
52015;SDS011;38032;53.326;6.472;2023-05-06T01:25:01;19.35;;;13.70;;
52015;SDS011;38032;53.326;6.472;2023-05-06T01:27:26;19.33;;;13.70;;
52015;SDS011;38032;53.326;6.472;2023-05-06T01:29:52;18.63;;;13.88;;
52015;SDS011;38032;53.326;6.472;2023-05-06T01:32:25;31.83;;;14.15;;
52015;SDS011;38032;53.326;6.472;2023-05-06T01:35:13;17.67;;;13.35;;
52015;SDS011;38032;53.326;6.472;2023-05-06T01:37:47;19.60;;;15.45;;
52015;SDS011;38032;53.326;6.472;2023-05-06T01:40:19;19.08;;;13.98;;
52015;SDS011;38032;53.326;6.472;2023-05-06T01:42:46;19.50;;;14.75;;
52015;SDS011;38032;53.326;6.472;2023-05-06T01:45:15;22.30;;;14.68;;
52015;SDS011;38032;53.326;6.472;2023-05-06T01:47:43;19.35;;;15.60;;
52015;SDS011;38032;53.326;6.472;2023-05-06T01:50:12;22.48;;;16.55;;
52015;SDS011;38032;53.326;6.472;2023-05-06T01:52:38;22.45;;;16.90;;
52015;SDS011;38032;53.326;6.472;2023-05-06T01:55:04;30.13;;;15.40;;
52015;SDS011;38032;53.326;6.472;2023-05-06T01:57:30;113.40;;;18.05;;
52015;SDS011;38032;53.326;6.472;2023-05-06T01:59:56;86.53;;;16.23;;
52015;SDS011;38032;53.326;6.472;2023-05-06T02:02:22;15.07;;;11.05;;
52015;SDS011;38032;53.326;6.472;2023-05-06T02:04:48;191.85;;;22.38;;
52015;SDS011;38032;53.326;6.472;2023-05-06T02:07:16;44.08;;;12.63;;
52015;SDS011;38032;53.326;6.472;2023-05-06T02:09:42;358.08;;;32.53;;
52015;SDS011;38032;53.326;6.472;2023-05-06T02:12:08;196.82;;;20.17;;
52015;SDS011;38032;53.326;6.472;2023-05-06T02:14:34;338.90;;;32.95;;
52015;SDS011;38032;53.326;6.472;2023-05-06T02:17:03;210.32;;;23.55;;
52015;SDS011;38032;53.326;6.472;2023-05-06T02:19:29;34.15;;;13.13;;
52015;SDS011;38032;53.326;6.472;2023-05-06T02:21:55;32.70;;;13.20;;
52015;SDS011;38032;53.326;6.472;2023-05-06T02:24:21;37.75;;;15.23;;
52015;SDS011;38032;53.326;6.472;2023-05-06T02:26:47;22.08;;;15.57;;
52015;SDS011;38032;53.326;6.472;2023-05-06T02:29:13;26.17;;;13.68;;
52015;SDS011;38032;53.326;6.472;2023-05-06T02:31:39;97.20;;;17.67;;
52015;SDS011;38032;53.326;6.472;2023-05-06T02:34:05;22.40;;;13.30;;
52015;SDS011;38032;53.326;6.472;2023-05-06T02:36:32;17.23;;;13.32;;
52015;SDS011;38032;53.326;6.472;2023-05-06T02:38:58;15.63;;;12.63;;
52015;SDS011;38032;53.326;6.472;2023-05-06T02:41:24;20.02;;;14.73;;
52015;SDS011;38032;53.326;6.472;2023-05-06T02:43:50;19.63;;;13.80;;
52015;SDS011;38032;53.326;6.472;2023-05-06T02:46:15;24.73;;;15.65;;
52015;SDS011;38032;53.326;6.472;2023-05-06T02:48:41;29.27;;;16.77;;
52015;SDS011;38032;53.326;6.472;2023-05-06T02:51:07;184.35;;;22.00;;
52015;SDS011;38032;53.326;6.472;2023-05-06T02:53:33;209.10;;;19.88;;
52015;SDS011;38032;53.326;6.472;2023-05-06T02:55:59;178.57;;;21.58;;
52015;SDS011;38032;53.326;6.472;2023-05-06T02:58:25;25.05;;;9.98;;
52015;SDS011;38032;53.326;6.472;2023-05-06T03:00:50;205.82;;;22.83;;
52015;SDS011;38032;53.326;6.472;2023-05-06T03:03:16;119.90;;;16.75;;
52015;SDS011;38032;53.326;6.472;2023-05-06T03:05:42;41.17;;;12.63;;
52015;SDS011;38032;53.326;6.472;2023-05-06T03:08:08;168.57;;;21.40;;
52015;SDS011;38032;53.326;6.472;2023-05-06T03:10:34;288.40;;;26.50;;
52015;SDS011;38032;53.326;6.472;2023-05-06T03:13:00;71.95;;;16.15;;
52015;SDS011;38032;53.326;6.472;2023-05-06T03:15:26;20.85;;;13.85;;
52015;SDS011;38032;53.326;6.472;2023-05-06T03:17:52;16.33;;;12.00;;
52015;SDS011;38032;53.326;6.472;2023-05-06T03:20:18;122.07;;;22.40;;
52015;SDS011;38032;53.326;6.472;2023-05-06T03:22:45;27.33;;;12.75;;
52015;SDS011;38032;53.326;6.472;2023-05-06T03:25:11;43.10;;;15.50;;
52015;SDS011;38032;53.326;6.472;2023-05-06T03:27:36;15.15;;;12.73;;
52015;SDS011;38032;53.326;6.472;2023-05-06T03:30:03;51.97;;;14.38;;
52015;SDS011;38032;53.326;6.472;2023-05-06T03:32:29;75.38;;;16.73;;
52015;SDS011;38032;53.326;6.472;2023-05-06T03:34:55;51.35;;;14.35;;
52015;SDS011;38032;53.326;6.472;2023-05-06T03:37:20;36.05;;;13.63;;
52015;SDS011;38032;53.326;6.472;2023-05-06T03:39:46;13.37;;;10.60;;
52015;SDS011;38032;53.326;6.472;2023-05-06T03:42:12;11.43;;;10.00;;
52015;SDS011;38032;53.326;6.472;2023-05-06T03:44:38;11.57;;;9.90;;
52015;SDS011;38032;53.326;6.472;2023-05-06T03:47:04;20.90;;;10.35;;
52015;SDS011;38032;53.326;6.472;2023-05-06T03:49:30;24.95;;;10.15;;
52015;SDS011;38032;53.326;6.472;2023-05-06T03:51:55;36.40;;;10.82;;
52015;SDS011;38032;53.326;6.472;2023-05-06T03:54:21;21.40;;;9.80;;
52015;SDS011;38032;53.326;6.472;2023-05-06T03:56:47;17.52;;;10.00;;
52015;SDS011;38032;53.326;6.472;2023-05-06T03:59:13;15.07;;;10.35;;
52015;SDS011;38032;53.326;6.472;2023-05-06T04:01:39;13.05;;;10.20;;
52015;SDS011;38032;53.326;6.472;2023-05-06T04:04:06;11.40;;;10.15;;
52015;SDS011;38032;53.326;6.472;2023-05-06T04:06:31;11.65;;;10.27;;
52015;SDS011;38032;53.326;6.472;2023-05-06T04:08:57;13.98;;;11.55;;
52015;SDS011;38032;53.326;6.472;2023-05-06T04:11:23;13.65;;;11.70;;
52015;SDS011;38032;53.326;6.472;2023-05-06T04:13:49;12.88;;;11.15;;
52015;SDS011;38032;53.326;6.472;2023-05-06T04:16:15;14.23;;;11.60;;
52015;SDS011;38032;53.326;6.472;2023-05-06T04:18:41;14.05;;;11.20;;
52015;SDS011;38032;53.326;6.472;2023-05-06T04:21:08;15.95;;;12.02;;
52015;SDS011;38032;53.326;6.472;2023-05-06T04:23:36;15.35;;;11.60;;
52015;SDS011;38032;53.326;6.472;2023-05-06T04:26:02;18.58;;;12.70;;
52015;SDS011;38032;53.326;6.472;2023-05-06T04:28:28;16.38;;;12.15;;
52015;SDS011;38032;53.326;6.472;2023-05-06T04:30:54;15.60;;;12.48;;
52015;SDS011;38032;53.326;6.472;2023-05-06T04:33:20;14.90;;;12.20;;
52015;SDS011;38032;53.326;6.472;2023-05-06T04:35:50;16.88;;;12.45;;
52015;SDS011;38032;53.326;6.472;2023-05-06T04:38:18;15.25;;;12.45;;
52015;SDS011;38032;53.326;6.472;2023-05-06T04:40:49;15.15;;;12.10;;
52015;SDS011;38032;53.326;6.472;2023-05-06T04:43:15;14.98;;;11.95;;
52015;SDS011;38032;53.326;6.472;2023-05-06T04:45:41;14.45;;;11.75;;
52015;SDS011;38032;53.326;6.472;2023-05-06T04:48:14;16.88;;;12.15;;
52015;SDS011;38032;53.326;6.472;2023-05-06T04:50:41;14.63;;;11.73;;
52015;SDS011;38032;53.326;6.472;2023-05-06T04:53:07;13.80;;;11.70;;
52015;SDS011;38032;53.326;6.472;2023-05-06T04:55:33;12.85;;;10.50;;
52015;SDS011;38032;53.326;6.472;2023-05-06T04:57:59;12.60;;;11.30;;
52015;SDS011;38032;53.326;6.472;2023-05-06T05:00:25;13.18;;;11.00;;
52015;SDS011;38032;53.326;6.472;2023-05-06T05:02:52;15.57;;;12.32;;
52015;SDS011;38032;53.326;6.472;2023-05-06T05:05:18;13.77;;;11.32;;
52015;SDS011;38032;53.326;6.472;2023-05-06T05:07:44;15.23;;;12.20;;
52015;SDS011;38032;53.326;6.472;2023-05-06T05:10:10;16.55;;;11.93;;
52015;SDS011;38032;53.326;6.472;2023-05-06T05:12:36;15.93;;;12.25;;
52015;SDS011;38032;53.326;6.472;2023-05-06T05:15:02;17.48;;;12.70;;
52015;SDS011;38032;53.326;6.472;2023-05-06T05:17:28;14.70;;;11.13;;
52015;SDS011;38032;53.326;6.472;2023-05-06T05:19:54;16.45;;;12.52;;
52015;SDS011;38032;53.326;6.472;2023-05-06T05:22:19;17.55;;;12.35;;
52015;SDS011;38032;53.326;6.472;2023-05-06T05:24:45;17.60;;;12.43;;
52015;SDS011;38032;53.326;6.472;2023-05-06T05:27:11;15.98;;;11.85;;
52015;SDS011;38032;53.326;6.472;2023-05-06T05:29:37;15.20;;;11.43;;
52015;SDS011;38032;53.326;6.472;2023-05-06T05:32:03;16.13;;;12.40;;
52015;SDS011;38032;53.326;6.472;2023-05-06T05:34:29;18.73;;;12.68;;
52015;SDS011;38032;53.326;6.472;2023-05-06T05:36:55;15.10;;;11.65;;
52015;SDS011;38032;53.326;6.472;2023-05-06T05:39:22;16.92;;;12.05;;
52015;SDS011;38032;53.326;6.472;2023-05-06T05:41:48;15.77;;;11.40;;
52015;SDS011;38032;53.326;6.472;2023-05-06T05:44:14;15.32;;;11.55;;
52015;SDS011;38032;53.326;6.472;2023-05-06T05:46:40;13.75;;;11.50;;
52015;SDS011;38032;53.326;6.472;2023-05-06T05:49:06;15.00;;;11.13;;
52015;SDS011;38032;53.326;6.472;2023-05-06T05:51:32;16.05;;;11.48;;
52015;SDS011;38032;53.326;6.472;2023-05-06T05:53:58;16.38;;;12.10;;
52015;SDS011;38032;53.326;6.472;2023-05-06T05:56:24;15.05;;;11.23;;
52015;SDS011;38032;53.326;6.472;2023-05-06T05:58:50;16.75;;;11.85;;
52015;SDS011;38032;53.326;6.472;2023-05-06T06:01:17;15.10;;;11.32;;
52015;SDS011;38032;53.326;6.472;2023-05-06T06:03:43;14.93;;;11.50;;
52015;SDS011;38032;53.326;6.472;2023-05-06T06:06:09;15.52;;;11.85;;
52015;SDS011;38032;53.326;6.472;2023-05-06T06:08:35;15.43;;;11.88;;
52015;SDS011;38032;53.326;6.472;2023-05-06T06:11:01;17.73;;;12.15;;
52015;SDS011;38032;53.326;6.472;2023-05-06T06:13:30;15.32;;;11.80;;
52015;SDS011;38032;53.326;6.472;2023-05-06T06:15:56;15.18;;;12.10;;
52015;SDS011;38032;53.326;6.472;2023-05-06T06:18:22;15.18;;;12.10;;
52015;SDS011;38032;53.326;6.472;2023-05-06T06:20:48;15.70;;;12.15;;
52015;SDS011;38032;53.326;6.472;2023-05-06T06:23:14;15.43;;;12.25;;
52015;SDS011;38032;53.326;6.472;2023-05-06T06:25:40;17.67;;;12.80;;
52015;SDS011;38032;53.326;6.472;2023-05-06T06:28:06;15.43;;;11.57;;
52015;SDS011;38032;53.326;6.472;2023-05-06T06:30:32;15.95;;;12.15;;
52015;SDS011;38032;53.326;6.472;2023-05-06T06:32:58;14.10;;;11.27;;
52015;SDS011;38032;53.326;6.472;2023-05-06T06:35:25;16.65;;;12.23;;
52015;SDS011;38032;53.326;6.472;2023-05-06T06:37:52;16.23;;;11.32;;
52015;SDS011;38032;53.326;6.472;2023-05-06T06:40:18;13.55;;;10.77;;
52015;SDS011;38032;53.326;6.472;2023-05-06T06:42:45;15.90;;;12.38;;
52015;SDS011;38032;53.326;6.472;2023-05-06T06:45:12;12.73;;;9.75;;
52015;SDS011;38032;53.326;6.472;2023-05-06T06:47:38;17.15;;;11.93;;
52015;SDS011;38032;53.326;6.472;2023-05-06T06:50:05;15.20;;;11.00;;
52015;SDS011;38032;53.326;6.472;2023-05-06T06:52:32;12.48;;;9.48;;
52015;SDS011;38032;53.326;6.472;2023-05-06T06:54:59;12.02;;;8.23;;
52015;SDS011;38032;53.326;6.472;2023-05-06T06:57:26;11.93;;;9.13;;
52015;SDS011;38032;53.326;6.472;2023-05-06T06:59:51;11.38;;;9.07;;
52015;SDS011;38032;53.326;6.472;2023-05-06T07:02:20;13.90;;;10.55;;
52015;SDS011;38032;53.326;6.472;2023-05-06T07:04:46;11.65;;;9.57;;
52015;SDS011;38032;53.326;6.472;2023-05-06T07:07:12;11.93;;;8.88;;
52015;SDS011;38032;53.326;6.472;2023-05-06T07:09:38;12.07;;;9.35;;
52015;SDS011;38032;53.326;6.472;2023-05-06T07:12:05;12.43;;;8.50;;
52015;SDS011;38032;53.326;6.472;2023-05-06T07:14:32;10.43;;;8.18;;
52015;SDS011;38032;53.326;6.472;2023-05-06T07:16:58;12.43;;;9.10;;
52015;SDS011;38032;53.326;6.472;2023-05-06T07:19:25;10.13;;;9.02;;
52015;SDS011;38032;53.326;6.472;2023-05-06T07:21:52;11.40;;;8.63;;
52015;SDS011;38032;53.326;6.472;2023-05-06T07:24:18;11.93;;;9.57;;
52015;SDS011;38032;53.326;6.472;2023-05-06T07:26:45;11.43;;;9.35;;
52015;SDS011;38032;53.326;6.472;2023-05-06T07:29:11;11.02;;;8.23;;
52015;SDS011;38032;53.326;6.472;2023-05-06T07:31:37;12.90;;;9.05;;
52015;SDS011;38032;53.326;6.472;2023-05-06T07:34:03;13.18;;;8.73;;
52015;SDS011;38032;53.326;6.472;2023-05-06T07:36:29;10.65;;;8.80;;
52015;SDS011;38032;53.326;6.472;2023-05-06T07:38:59;9.23;;;7.78;;
52015;SDS011;38032;53.326;6.472;2023-05-06T07:41:25;10.48;;;7.93;;
52015;SDS011;38032;53.326;6.472;2023-05-06T07:43:51;9.18;;;7.43;;
52015;SDS011;38032;53.326;6.472;2023-05-06T07:46:17;11.82;;;8.20;;
52015;SDS011;38032;53.326;6.472;2023-05-06T07:48:43;10.65;;;8.30;;
52015;SDS011;38032;53.326;6.472;2023-05-06T07:51:08;10.75;;;8.45;;
52015;SDS011;38032;53.326;6.472;2023-05-06T07:53:34;10.40;;;7.88;;
52015;SDS011;38032;53.326;6.472;2023-05-06T07:56:02;9.80;;;7.70;;
52015;SDS011;38032;53.326;6.472;2023-05-06T07:58:29;10.65;;;7.80;;
52015;SDS011;38032;53.326;6.472;2023-05-06T08:00:55;9.02;;;7.43;;
52015;SDS011;38032;53.326;6.472;2023-05-06T08:03:22;8.88;;;7.03;;
52015;SDS011;38032;53.326;6.472;2023-05-06T08:05:49;9.35;;;6.88;;
52015;SDS011;38032;53.326;6.472;2023-05-06T08:08:16;9.95;;;7.65;;
52015;SDS011;38032;53.326;6.472;2023-05-06T08:10:42;9.95;;;7.18;;
52015;SDS011;38032;53.326;6.472;2023-05-06T08:13:09;7.90;;;6.45;;
52015;SDS011;38032;53.326;6.472;2023-05-06T08:15:36;9.05;;;6.97;;
52015;SDS011;38032;53.326;6.472;2023-05-06T08:18:02;8.57;;;7.03;;
52015;SDS011;38032;53.326;6.472;2023-05-06T08:20:29;7.28;;;6.00;;
52015;SDS011;38032;53.326;6.472;2023-05-06T08:22:55;7.30;;;5.55;;
52015;SDS011;38032;53.326;6.472;2023-05-06T08:25:20;8.65;;;6.50;;
52015;SDS011;38032;53.326;6.472;2023-05-06T08:27:46;8.98;;;6.10;;
52015;SDS011;38032;53.326;6.472;2023-05-06T08:30:12;7.82;;;6.30;;
52015;SDS011;38032;53.326;6.472;2023-05-06T08:32:38;9.40;;;6.88;;
52015;SDS011;38032;53.326;6.472;2023-05-06T08:35:05;8.55;;;6.80;;
52015;SDS011;38032;53.326;6.472;2023-05-06T08:37:31;7.82;;;6.70;;
52015;SDS011;38032;53.326;6.472;2023-05-06T08:39:58;8.90;;;7.40;;
52015;SDS011;38032;53.326;6.472;2023-05-06T08:42:24;7.47;;;6.35;;
52015;SDS011;38032;53.326;6.472;2023-05-06T08:44:51;8.18;;;6.78;;
52015;SDS011;38032;53.326;6.472;2023-05-06T08:47:18;9.15;;;6.60;;
52015;SDS011;38032;53.326;6.472;2023-05-06T08:49:45;7.53;;;6.05;;
52015;SDS011;38032;53.326;6.472;2023-05-06T08:52:11;7.80;;;6.57;;
52015;SDS011;38032;53.326;6.472;2023-05-06T08:54:37;8.10;;;5.55;;
52015;SDS011;38032;53.326;6.472;2023-05-06T08:57:04;7.00;;;5.47;;
52015;SDS011;38032;53.326;6.472;2023-05-06T08:59:31;7.13;;;5.55;;
52015;SDS011;38032;53.326;6.472;2023-05-06T09:01:59;7.55;;;5.30;;
52015;SDS011;38032;53.326;6.472;2023-05-06T09:04:26;6.85;;;5.25;;
52015;SDS011;38032;53.326;6.472;2023-05-06T09:06:52;5.82;;;4.75;;
52015;SDS011;38032;53.326;6.472;2023-05-06T09:09:18;7.38;;;5.40;;
52015;SDS011;38032;53.326;6.472;2023-05-06T09:11:44;5.82;;;4.13;;
52015;SDS011;38032;53.326;6.472;2023-05-06T09:14:12;5.43;;;4.40;;
52015;SDS011;38032;53.326;6.472;2023-05-06T09:16:43;6.40;;;4.78;;
52015;SDS011;38032;53.326;6.472;2023-05-06T09:19:11;5.75;;;4.15;;
52015;SDS011;38032;53.326;6.472;2023-05-06T09:21:38;4.85;;;4.07;;
52015;SDS011;38032;53.326;6.472;2023-05-06T09:24:07;5.10;;;4.40;;
52015;SDS011;38032;53.326;6.472;2023-05-06T09:26:34;6.45;;;5.30;;
52015;SDS011;38032;53.326;6.472;2023-05-06T09:29:02;5.20;;;4.70;;
52015;SDS011;38032;53.326;6.472;2023-05-06T09:31:29;5.40;;;4.65;;
52015;SDS011;38032;53.326;6.472;2023-05-06T09:33:56;5.50;;;4.90;;
52015;SDS011;38032;53.326;6.472;2023-05-06T09:36:24;6.30;;;4.70;;
52015;SDS011;38032;53.326;6.472;2023-05-06T09:38:52;7.10;;;4.95;;
52015;SDS011;38032;53.326;6.472;2023-05-06T09:41:20;6.80;;;5.30;;
52015;SDS011;38032;53.326;6.472;2023-05-06T09:43:47;6.10;;;5.20;;
52015;SDS011;38032;53.326;6.472;2023-05-06T09:46:13;6.00;;;5.40;;
52015;SDS011;38032;53.326;6.472;2023-05-06T09:48:40;6.63;;;5.40;;
52015;SDS011;38032;53.326;6.472;2023-05-06T09:51:07;6.30;;;5.70;;
52015;SDS011;38032;53.326;6.472;2023-05-06T09:53:33;6.63;;;5.80;;
52015;SDS011;38032;53.326;6.472;2023-05-06T09:56:02;6.82;;;5.72;;
52015;SDS011;38032;53.326;6.472;2023-05-06T09:58:29;8.65;;;6.40;;
52015;SDS011;38032;53.326;6.472;2023-05-06T10:00:56;7.03;;;6.32;;
52015;SDS011;38032;53.326;6.472;2023-05-06T10:03:23;6.65;;;5.95;;
52015;SDS011;38032;53.326;6.472;2023-05-06T10:05:53;6.95;;;5.57;;
52015;SDS011;38032;53.326;6.472;2023-05-06T10:08:22;8.85;;;6.22;;
52015;SDS011;38032;53.326;6.472;2023-05-06T10:10:49;6.72;;;5.43;;
52015;SDS011;38032;53.326;6.472;2023-05-06T10:13:16;8.40;;;5.90;;
52015;SDS011;38032;53.326;6.472;2023-05-06T10:15:44;6.57;;;5.78;;
52015;SDS011;38032;53.326;6.472;2023-05-06T10:18:12;7.75;;;6.40;;
52015;SDS011;38032;53.326;6.472;2023-05-06T10:20:41;9.23;;;6.88;;
52015;SDS011;38032;53.326;6.472;2023-05-06T10:23:15;6.80;;;6.10;;
52015;SDS011;38032;53.326;6.472;2023-05-06T10:25:52;8.27;;;6.40;;
52015;SDS011;38032;53.326;6.472;2023-05-06T10:28:20;7.57;;;6.78;;
52015;SDS011;38032;53.326;6.472;2023-05-06T10:30:47;9.25;;;6.80;;
52015;SDS011;38032;53.326;6.472;2023-05-06T10:33:15;7.95;;;7.15;;
52015;SDS011;38032;53.326;6.472;2023-05-06T10:35:47;8.35;;;7.20;;
52015;SDS011;38032;53.326;6.472;2023-05-06T10:38:23;8.60;;;6.90;;
52015;SDS011;38032;53.326;6.472;2023-05-06T10:40:56;8.52;;;6.43;;
52015;SDS011;38032;53.326;6.472;2023-05-06T10:43:25;8.88;;;7.15;;
52015;SDS011;38032;53.326;6.472;2023-05-06T10:46:03;7.93;;;6.20;;
52015;SDS011;38032;53.326;6.472;2023-05-06T10:48:29;6.93;;;5.40;;
52015;SDS011;38032;53.326;6.472;2023-05-06T10:53:54;7.20;;;6.50;;
52015;SDS011;38032;53.326;6.472;2023-05-06T10:56:22;8.32;;;7.25;;
52015;SDS011;38032;53.326;6.472;2023-05-06T10:58:48;9.60;;;7.80;;
52015;SDS011;38032;53.326;6.472;2023-05-06T11:01:15;8.68;;;7.82;;
52015;SDS011;38032;53.326;6.472;2023-05-06T11:03:41;8.93;;;7.03;;
52015;SDS011;38032;53.326;6.472;2023-05-06T11:06:08;8.30;;;6.78;;
52015;SDS011;38032;53.326;6.472;2023-05-06T11:08:34;7.68;;;6.88;;
52015;SDS011;38032;53.326;6.472;2023-05-06T11:10:59;9.45;;;7.65;;
52015;SDS011;38032;53.326;6.472;2023-05-06T11:13:28;10.23;;;7.30;;
52015;SDS011;38032;53.326;6.472;2023-05-06T11:15:58;9.57;;;7.50;;
52015;SDS011;38032;53.326;6.472;2023-05-06T11:26:07;9.82;;;8.65;;
52015;SDS011;38032;53.326;6.472;2023-05-06T11:28:33;10.02;;;8.32;;
52015;SDS011;38032;53.326;6.472;2023-05-06T11:31:00;10.52;;;8.60;;
52015;SDS011;38032;53.326;6.472;2023-05-06T11:33:30;10.68;;;7.50;;
52015;SDS011;38032;53.326;6.472;2023-05-06T11:35:58;10.60;;;8.38;;
52015;SDS011;38032;53.326;6.472;2023-05-06T11:38:25;8.70;;;7.75;;
52015;SDS011;38032;53.326;6.472;2023-05-06T11:41:04;9.63;;;8.60;;
52015;SDS011;38032;53.326;6.472;2023-05-06T11:43:31;14.25;;;9.13;;
52015;SDS011;38032;53.326;6.472;2023-05-06T11:45:57;9.90;;;8.07;;
52015;SDS011;38032;53.326;6.472;2023-05-06T11:48:23;10.30;;;8.57;;
52015;SDS011;38032;53.326;6.472;2023-05-06T11:50:49;10.77;;;8.10;;
52015;SDS011;38032;53.326;6.472;2023-05-06T11:53:15;9.93;;;8.32;;
52015;SDS011;38032;53.326;6.472;2023-05-06T11:55:44;9.48;;;7.82;;
52015;SDS011;38032;53.326;6.472;2023-05-06T11:58:18;9.55;;;8.30;;
52015;SDS011;38032;53.326;6.472;2023-05-06T12:00:48;10.02;;;8.25;;
52015;SDS011;38032;53.326;6.472;2023-05-06T12:03:18;10.48;;;8.85;;
52015;SDS011;38032;53.326;6.472;2023-05-06T12:05:44;9.48;;;7.80;;
52015;SDS011;38032;53.326;6.472;2023-05-06T12:08:12;8.70;;;7.70;;
52015;SDS011;38032;53.326;6.472;2023-05-06T12:10:40;8.77;;;7.75;;
52015;SDS011;38032;53.326;6.472;2023-05-06T12:13:06;10.75;;;8.15;;
52015;SDS011;38032;53.326;6.472;2023-05-06T12:15:33;9.95;;;7.72;;
52015;SDS011;38032;53.326;6.472;2023-05-06T12:18:00;10.30;;;8.43;;
52015;SDS011;38032;53.326;6.472;2023-05-06T12:20:27;10.00;;;9.00;;
52015;SDS011;38032;53.326;6.472;2023-05-06T12:25:39;10.68;;;9.27;;
52015;SDS011;38032;53.326;6.472;2023-05-06T12:28:13;10.68;;;9.52;;
52015;SDS011;38032;53.326;6.472;2023-05-06T12:30:40;10.88;;;9.75;;
52015;SDS011;38032;53.326;6.472;2023-05-06T12:33:08;12.85;;;10.57;;
52015;SDS011;38032;53.326;6.472;2023-05-06T12:35:35;9.68;;;7.95;;
52015;SDS011;38032;53.326;6.472;2023-05-06T12:40:34;14.10;;;10.02;;
52015;SDS011;38032;53.326;6.472;2023-05-06T12:43:00;12.68;;;10.35;;
52015;SDS011;38032;53.326;6.472;2023-05-06T12:45:26;15.10;;;10.20;;
52015;SDS011;38032;53.326;6.472;2023-05-06T12:47:53;13.70;;;8.82;;
52015;SDS011;38032;53.326;6.472;2023-05-06T12:50:29;11.35;;;9.98;;
52015;SDS011;38032;53.326;6.472;2023-05-06T12:52:59;11.85;;;8.98;;
52015;SDS011;38032;53.326;6.472;2023-05-06T12:55:26;9.90;;;8.55;;
52015;SDS011;38032;53.326;6.472;2023-05-06T12:57:53;12.77;;;9.30;;
52015;SDS011;38032;53.326;6.472;2023-05-06T13:00:19;10.07;;;8.57;;
52015;SDS011;38032;53.326;6.472;2023-05-06T13:02:46;11.43;;;9.07;;
52015;SDS011;38032;53.326;6.472;2023-05-06T13:05:12;11.98;;;9.68;;
52015;SDS011;38032;53.326;6.472;2023-05-06T13:07:39;11.40;;;9.73;;
52015;SDS011;38032;53.326;6.472;2023-05-06T13:10:05;13.45;;;9.85;;
52015;SDS011;38032;53.326;6.472;2023-05-06T13:12:32;13.07;;;9.32;;
52015;SDS011;38032;53.326;6.472;2023-05-06T13:14:58;10.98;;;8.40;;
52015;SDS011;38032;53.326;6.472;2023-05-06T13:17:24;12.35;;;8.13;;
52015;SDS011;38032;53.326;6.472;2023-05-06T13:19:52;10.93;;;8.43;;
52015;SDS011;38032;53.326;6.472;2023-05-06T13:22:18;10.68;;;8.18;;
52015;SDS011;38032;53.326;6.472;2023-05-06T13:24:44;12.27;;;8.55;;
52015;SDS011;38032;53.326;6.472;2023-05-06T13:27:10;10.48;;;8.55;;
52015;SDS011;38032;53.326;6.472;2023-05-06T13:29:37;11.57;;;8.40;;
52015;SDS011;38032;53.326;6.472;2023-05-06T13:32:03;10.18;;;8.20;;
52015;SDS011;38032;53.326;6.472;2023-05-06T13:34:29;12.90;;;8.20;;
52015;SDS011;38032;53.326;6.472;2023-05-06T13:36:55;11.27;;;8.18;;
52015;SDS011;38032;53.326;6.472;2023-05-06T13:39:22;9.25;;;7.28;;
52015;SDS011;38032;53.326;6.472;2023-05-06T13:41:49;12.00;;;7.93;;
52015;SDS011;38032;53.326;6.472;2023-05-06T13:44:15;10.23;;;7.28;;
52015;SDS011;38032;53.326;6.472;2023-05-06T13:46:43;9.95;;;8.95;;
52015;SDS011;38032;53.326;6.472;2023-05-06T13:49:09;12.02;;;9.43;;
52015;SDS011;38032;53.326;6.472;2023-05-06T13:51:35;12.20;;;9.15;;
52015;SDS011;38032;53.326;6.472;2023-05-06T13:54:01;11.07;;;9.10;;
52015;SDS011;38032;53.326;6.472;2023-05-06T13:56:27;11.32;;;9.50;;
52015;SDS011;38032;53.326;6.472;2023-05-06T13:58:53;12.55;;;9.48;;
52015;SDS011;38032;53.326;6.472;2023-05-06T14:01:20;10.50;;;9.02;;
52015;SDS011;38032;53.326;6.472;2023-05-06T14:03:47;11.02;;;9.30;;
52015;SDS011;38032;53.326;6.472;2023-05-06T14:06:13;10.90;;;9.05;;
52015;SDS011;38032;53.326;6.472;2023-05-06T14:08:39;12.85;;;9.73;;
52015;SDS011;38032;53.326;6.472;2023-05-06T14:11:05;13.52;;;10.73;;
52015;SDS011;38032;53.326;6.472;2023-05-06T14:13:31;11.10;;;9.20;;
52015;SDS011;38032;53.326;6.472;2023-05-06T14:15:58;11.13;;;9.68;;
52015;SDS011;38032;53.326;6.472;2023-05-06T14:18:25;10.98;;;9.75;;
52015;SDS011;38032;53.326;6.472;2023-05-06T14:20:51;12.60;;;10.45;;
52015;SDS011;38032;53.326;6.472;2023-05-06T14:23:17;11.60;;;10.32;;
52015;SDS011;38032;53.326;6.472;2023-05-06T14:25:43;12.02;;;10.32;;
52015;SDS011;38032;53.326;6.472;2023-05-06T14:28:09;12.27;;;10.73;;
52015;SDS011;38032;53.326;6.472;2023-05-06T14:30:35;12.90;;;10.45;;
52015;SDS011;38032;53.326;6.472;2023-05-06T14:33:02;11.48;;;10.27;;
52015;SDS011;38032;53.326;6.472;2023-05-06T14:35:28;12.38;;;10.30;;
52015;SDS011;38032;53.326;6.472;2023-05-06T14:37:54;12.50;;;10.45;;
52015;SDS011;38032;53.326;6.472;2023-05-06T14:40:20;12.70;;;10.68;;
52015;SDS011;38032;53.326;6.472;2023-05-06T14:42:46;12.10;;;10.38;;
52015;SDS011;38032;53.326;6.472;2023-05-06T14:45:12;14.25;;;10.88;;